PWSweather.com
Personal Weather Stations
Station Observations

SkegnessGB

Lat: 53.147585, Lon: 0.345774

Elevation: 18

Station Type: Fine Offset WH3080

http://www.skegnessweather.info/

High Low Average
Temperature 44.1°F6.7°C 34.2°F1.2°C 38.5°F3.6°C
Dew Point 39.2°F4.0°C 30.7°F-0.7°C 34.8°F1.6°C
Winds 8.6 mph 13.8 kmh 2.1 mph 3.4 kmh 5.0 mph SSW8.0 kmh SSW
Wind Gusts 9.1 mph14.6 kmh 3.4 mph5.5 kmh 6.0 mph9.7 kmh
Humidity 90% 82% 86%
Pressure 30.13 in1020.3 mb 30.03 in1016.9 mb -
Precipitation 0.00 in0.0 mm - -
Hour Temp Dew Point Humidity Winds Wind Gusts Pressure Precip Precip Rate Daily Precip Total
12:00 AM 37.0°F2.8°C 33.8°F1.0°C 88% 3.0 mph SW4.8 kmh SW 3.4 mph5.5 kmh 30.12 in1020.0 mb 0.00 in0.0 mm 0.00 in0.0 mm 0.00 in0.0 mm
12:10 AM 37.2°F2.9°C 34.0°F1.1°C 88% 3.6 mph SW5.8 kmh SW 4.2 mph6.8 kmh 30.13 in1020.3 mb 0.00 in0.0 mm 0.00 in0.0 mm 0.00 in0.0 mm
12:20 AM 37.4°F3.0°C 34.2°F1.2°C 88% 2.6 mph S4.2 kmh S 4.9 mph7.9 kmh 30.12 in1020.0 mb 0.00 in0.0 mm 0.00 in0.0 mm 0.00 in0.0 mm
12:30 AM 37.8°F3.2°C 34.5°F1.4°C 88% 2.7 mph SSW4.3 kmh SSW 3.4 mph5.5 kmh 30.12 in1020.0 mb 0.00 in0.0 mm 0.00 in0.0 mm 0.00 in0.0 mm
12:40 AM 37.9°F3.3°C 34.7°F1.5°C 88% 4.5 mph SSW7.2 kmh SSW 5.9 mph9.5 kmh 30.11 in1019.6 mb 0.00 in0.0 mm 0.00 in0.0 mm 0.00 in0.0 mm
12:50 AM 38.3°F3.5°C 35.3°F1.8°C 89% 4.3 mph SW6.9 kmh SW 5.9 mph9.5 kmh 30.11 in1019.6 mb 0.00 in0.0 mm 0.00 in0.0 mm 0.00 in0.0 mm
01:00 AM 38.7°F3.7°C 35.7°F2.1°C 89% 4.0 mph SSE6.4 kmh SSE 5.9 mph9.5 kmh 30.11 in1019.6 mb 0.00 in0.0 mm 0.00 in0.0 mm 0.00 in0.0 mm
01:10 AM 39.0°F3.9°C 36.1°F2.3°C 89% 5.2 mph SE8.4 kmh SE 5.9 mph9.5 kmh 30.12 in1020.0 mb 0.00 in0.0 mm 0.00 in0.0 mm 0.00 in0.0 mm
01:20 AM 39.4°F4.1°C 36.4°F2.4°C 89% 5.9 mph SSW9.5 kmh SSW 7.6 mph12.2 kmh 30.11 in1019.6 mb 0.00 in0.0 mm 0.00 in0.0 mm 0.00 in0.0 mm
01:30 AM 39.6°F4.2°C 36.9°F2.7°C 90% 4.2 mph SSE6.8 kmh SSE 5.9 mph9.5 kmh 30.11 in1019.6 mb 0.00 in0.0 mm 0.00 in0.0 mm 0.00 in0.0 mm
01:40 AM 39.7°F4.3°C 37.0°F2.8°C 90% 5.1 mph SSE8.2 kmh SSE 4.9 mph7.9 kmh 30.11 in1019.6 mb 0.00 in0.0 mm 0.00 in0.0 mm 0.00 in0.0 mm
01:50 AM 39.9°F4.4°C 37.2°F2.9°C 90% 4.7 mph SSW7.6 kmh SSW 5.9 mph9.5 kmh 30.11 in1019.6 mb 0.00 in0.0 mm 0.00 in0.0 mm 0.00 in0.0 mm
02:00 AM 40.1°F4.5°C 37.4°F3.0°C 90% 4.0 mph SW6.4 kmh SW 5.9 mph9.5 kmh 30.11 in1019.6 mb 0.00 in0.0 mm 0.00 in0.0 mm 0.00 in0.0 mm
02:10 AM 40.1°F4.5°C 37.1°F2.8°C 89% 3.5 mph SSW5.6 kmh SSW 4.9 mph7.9 kmh 30.11 in1019.6 mb 0.00 in0.0 mm 0.00 in0.0 mm 0.00 in0.0 mm
02:20 AM 40.1°F4.5°C 37.1°F2.8°C 89% 3.3 mph WSW5.3 kmh WSW 4.9 mph7.9 kmh 30.11 in1019.6 mb 0.00 in0.0 mm 0.00 in0.0 mm 0.00 in0.0 mm
02:30 AM 40.1°F4.5°C 37.1°F2.8°C 89% 3.2 mph WSW5.1 kmh WSW 4.9 mph7.9 kmh 30.10 in1019.3 mb 0.00 in0.0 mm 0.00 in0.0 mm 0.00 in0.0 mm
02:40 AM 39.9°F4.4°C 36.9°F2.7°C 89% 4.1 mph WSW6.6 kmh WSW 4.9 mph7.9 kmh 30.09 in1019.0 mb 0.00 in0.0 mm 0.00 in0.0 mm 0.00 in0.0 mm
02:50 AM 39.6°F4.2°C 36.3°F2.4°C 88% 4.4 mph S7.1 kmh S 5.9 mph9.5 kmh 30.09 in1019.0 mb 0.00 in0.0 mm 0.00 in0.0 mm 0.00 in0.0 mm
03:00 AM 39.2°F4.0°C 35.7°F2.1°C 87% 3.7 mph S6.0 kmh S 4.2 mph6.8 kmh 30.09 in1019.0 mb 0.00 in0.0 mm 0.00 in0.0 mm 0.00 in0.0 mm
03:10 AM 39.0°F3.9°C 35.5°F1.9°C 87% 3.2 mph SW5.1 kmh SW 4.2 mph6.8 kmh 30.09 in1019.0 mb 0.00 in0.0 mm 0.00 in0.0 mm 0.00 in0.0 mm
03:20 AM 38.8°F3.8°C 35.3°F1.8°C 87% 4.1 mph WSW6.6 kmh WSW 4.9 mph7.9 kmh 30.09 in1019.0 mb 0.00 in0.0 mm 0.00 in0.0 mm 0.00 in0.0 mm
03:30 AM 38.5°F3.6°C 34.7°F1.5°C 86% 4.1 mph S6.6 kmh S 4.9 mph7.9 kmh 30.08 in1018.6 mb 0.00 in0.0 mm 0.00 in0.0 mm 0.00 in0.0 mm
03:40 AM 38.5°F3.6°C 34.7°F1.5°C 86% 4.1 mph SW6.6 kmh SW 4.9 mph7.9 kmh 30.08 in1018.6 mb 0.00 in0.0 mm 0.00 in0.0 mm 0.00 in0.0 mm
03:50 AM 38.5°F3.6°C 34.7°F1.5°C 86% 5.4 mph SSW8.7 kmh SSW 6.6 mph10.6 kmh 30.09 in1019.0 mb 0.00 in0.0 mm 0.00 in0.0 mm 0.00 in0.0 mm
04:00 AM 38.5°F3.6°C 34.7°F1.5°C 86% 6.3 mph S10.1 kmh S 6.6 mph10.6 kmh 30.08 in1018.6 mb 0.00 in0.0 mm 0.00 in0.0 mm 0.00 in0.0 mm
04:10 AM 38.5°F3.6°C 34.7°F1.5°C 86% 6.0 mph SSW9.7 kmh SSW 6.6 mph10.6 kmh 30.07 in1018.3 mb 0.00 in0.0 mm 0.00 in0.0 mm 0.00 in0.0 mm
04:20 AM 38.3°F3.5°C 34.8°F1.6°C 87% 7.1 mph SW11.4 kmh SW 7.6 mph12.2 kmh 30.08 in1018.6 mb 0.00 in0.0 mm 0.00 in0.0 mm 0.00 in0.0 mm
04:30 AM 38.3°F3.5°C 34.8°F1.6°C 87% 7.3 mph SSE11.7 kmh SSE 8.4 mph13.5 kmh 30.07 in1018.3 mb 0.00 in0.0 mm 0.00 in0.0 mm 0.00 in0.0 mm
04:40 AM 38.1°F3.4°C 34.6°F1.4°C 87% 6.6 mph SSW10.6 kmh SSW 8.4 mph13.5 kmh 30.07 in1018.3 mb 0.00 in0.0 mm 0.00 in0.0 mm 0.00 in0.0 mm
04:50 AM 37.8°F3.2°C 34.2°F1.2°C 87% 4.7 mph S7.6 kmh S 8.4 mph13.5 kmh 30.07 in1018.3 mb 0.00 in0.0 mm 0.00 in0.0 mm 0.00 in0.0 mm
05:00 AM 37.6°F3.1°C 34.1°F1.2°C 87% 5.2 mph SSW8.4 kmh SSW 7.6 mph12.2 kmh 30.07 in1018.3 mb 0.00 in0.0 mm 0.00 in0.0 mm 0.00 in0.0 mm
05:10 AM 37.2°F2.9°C 33.7°F0.9°C 87% 6.5 mph E10.5 kmh E 7.6 mph12.2 kmh 30.07 in1018.3 mb 0.00 in0.0 mm 0.00 in0.0 mm 0.00 in0.0 mm
05:20 AM 37.0°F2.8°C 33.5°F0.8°C 87% 4.1 mph SW6.6 kmh SW 5.9 mph9.5 kmh 30.07 in1018.3 mb 0.00 in0.0 mm 0.00 in0.0 mm 0.00 in0.0 mm
05:30 AM 36.9°F2.7°C 33.4°F0.8°C 87% 4.4 mph SW7.1 kmh SW 5.9 mph9.5 kmh 30.07 in1018.3 mb 0.00 in0.0 mm 0.00 in0.0 mm 0.00 in0.0 mm
05:40 AM 36.9°F2.7°C 33.4°F0.8°C 87% 5.4 mph SW8.7 kmh SW 9.1 mph14.6 kmh 30.07 in1018.3 mb 0.00 in0.0 mm 0.00 in0.0 mm 0.00 in0.0 mm
05:50 AM 36.9°F2.7°C 33.4°F0.8°C 87% 5.8 mph SSW9.3 kmh SSW 9.1 mph14.6 kmh 30.07 in1018.3 mb 0.00 in0.0 mm 0.00 in0.0 mm 0.00 in0.0 mm
06:00 AM 36.9°F2.7°C 33.4°F0.8°C 87% 5.9 mph SSW9.5 kmh SSW 7.6 mph12.2 kmh 30.07 in1018.3 mb 0.00 in0.0 mm 0.00 in0.0 mm 0.00 in0.0 mm
06:10 AM 36.9°F2.7°C 33.4°F0.8°C 87% 6.7 mph SW10.8 kmh SW 7.6 mph12.2 kmh 30.06 in1017.9 mb 0.00 in0.0 mm 0.00 in0.0 mm 0.00 in0.0 mm
06:20 AM 36.7°F2.6°C 33.2°F0.7°C 87% 5.9 mph SW9.5 kmh SW 6.6 mph10.6 kmh 30.06 in1017.9 mb 0.00 in0.0 mm 0.00 in0.0 mm 0.00 in0.0 mm
06:30 AM 36.5°F2.5°C 33.0°F0.6°C 87% 5.2 mph SW8.4 kmh SW 5.9 mph9.5 kmh 30.07 in1018.3 mb 0.00 in0.0 mm 0.00 in0.0 mm 0.00 in0.0 mm
06:40 AM 36.3°F2.4°C 32.8°F0.4°C 87% 4.6 mph SSW7.4 kmh SSW 6.6 mph10.6 kmh 30.07 in1018.3 mb 0.00 in0.0 mm 0.00 in0.0 mm 0.00 in0.0 mm
06:50 AM 36.1°F2.3°C 32.6°F0.3°C 87% 3.8 mph SW6.1 kmh SW 4.9 mph7.9 kmh 30.07 in1018.3 mb 0.00 in0.0 mm 0.00 in0.0 mm 0.00 in0.0 mm
07:00 AM 36.1°F2.3°C 32.6°F0.3°C 87% 4.1 mph SW6.6 kmh SW 4.2 mph6.8 kmh 30.07 in1018.3 mb 0.00 in0.0 mm 0.00 in0.0 mm 0.00 in0.0 mm
07:10 AM 36.0°F2.2°C 32.5°F0.3°C 87% 4.3 mph SSW6.9 kmh SSW 4.9 mph7.9 kmh 30.07 in1018.3 mb 0.00 in0.0 mm 0.00 in0.0 mm 0.00 in0.0 mm
07:20 AM 35.6°F2.0°C 32.1°F0.1°C 87% 4.4 mph W7.1 kmh W 6.6 mph10.6 kmh 30.07 in1018.3 mb 0.00 in0.0 mm 0.00 in0.0 mm 0.00 in0.0 mm
07:30 AM 35.4°F1.9°C 31.9°F-0.1°C 87% 4.8 mph WSW7.7 kmh WSW 4.9 mph7.9 kmh 30.07 in1018.3 mb 0.00 in0.0 mm 0.00 in0.0 mm 0.00 in0.0 mm
07:40 AM 35.1°F1.7°C 31.6°F-0.2°C 87% 4.8 mph SW7.7 kmh SW 4.9 mph7.9 kmh 30.07 in1018.3 mb 0.00 in0.0 mm 0.00 in0.0 mm 0.00 in0.0 mm
07:50 AM 35.1°F1.7°C 31.6°F-0.2°C 87% 3.6 mph SW5.8 kmh SW 4.2 mph6.8 kmh 30.07 in1018.3 mb 0.00 in0.0 mm 0.00 in0.0 mm 0.00 in0.0 mm
08:00 AM 35.1°F1.7°C 31.6°F-0.2°C 87% 3.3 mph SW5.3 kmh SW 3.4 mph5.5 kmh 30.07 in1018.3 mb 0.00 in0.0 mm 0.00 in0.0 mm 0.00 in0.0 mm
08:10 AM 34.7°F1.5°C 31.2°F-0.4°C 87% 3.7 mph SSW6.0 kmh SSW 4.2 mph6.8 kmh 30.08 in1018.6 mb 0.00 in0.0 mm 0.00 in0.0 mm 0.00 in0.0 mm
08:20 AM 34.7°F1.5°C 31.2°F-0.4°C 87% 3.1 mph WSW5.0 kmh WSW 3.4 mph5.5 kmh 30.08 in1018.6 mb 0.00 in0.0 mm 0.00 in0.0 mm 0.00 in0.0 mm
08:30 AM 34.7°F1.5°C 31.2°F-0.4°C 87% 3.5 mph SSW5.6 kmh SSW 4.2 mph6.8 kmh 30.08 in1018.6 mb 0.00 in0.0 mm 0.00 in0.0 mm 0.00 in0.0 mm
08:40 AM 35.1°F1.7°C 31.6°F-0.2°C 87% 3.6 mph WSW5.8 kmh WSW 4.9 mph7.9 kmh 30.08 in1018.6 mb 0.00 in0.0 mm 0.00 in0.0 mm 0.00 in0.0 mm
08:50 AM 35.2°F1.8°C 31.8°F-0.1°C 87% 4.4 mph WSW7.1 kmh WSW 6.6 mph10.6 kmh 30.08 in1018.6 mb 0.00 in0.0 mm 0.00 in0.0 mm 0.00 in0.0 mm
09:00 AM 35.8°F2.1°C 32.6°F0.3°C 88% 4.3 mph WSW6.9 kmh WSW 5.9 mph9.5 kmh 30.09 in1019.0 mb 0.00 in0.0 mm 0.00 in0.0 mm 0.00 in0.0 mm
09:10 AM 36.1°F2.3°C 32.9°F0.5°C 88% 4.7 mph SSW7.6 kmh SSW 6.6 mph10.6 kmh 30.09 in1019.0 mb 0.00 in0.0 mm 0.00 in0.0 mm 0.00 in0.0 mm
09:20 AM 36.5°F2.5°C 33.3°F0.7°C 88% 5.4 mph SW8.7 kmh SW 7.6 mph12.2 kmh 30.08 in1018.6 mb 0.00 in0.0 mm 0.00 in0.0 mm 0.00 in0.0 mm
09:30 AM 36.7°F2.6°C 33.5°F0.8°C 88% 5.6 mph SW9.0 kmh SW 6.6 mph10.6 kmh 30.09 in1019.0 mb 0.00 in0.0 mm 0.00 in0.0 mm 0.00 in0.0 mm
09:40 AM 36.9°F2.7°C 33.6°F0.9°C 88% 4.7 mph SSW7.6 kmh SSW 5.9 mph9.5 kmh 30.09 in1019.0 mb 0.00 in0.0 mm 0.00 in0.0 mm 0.00 in0.0 mm
09:50 AM 37.8°F3.2°C 34.8°F1.6°C 89% 3.5 mph SSW5.6 kmh SSW 4.2 mph6.8 kmh 30.09 in1019.0 mb 0.00 in0.0 mm 0.00 in0.0 mm 0.00 in0.0 mm
10:00 AM 38.3°F3.5°C 35.3°F1.8°C 89% 4.2 mph SSW6.8 kmh SSW 5.9 mph9.5 kmh 30.08 in1018.6 mb 0.00 in0.0 mm 0.00 in0.0 mm 0.00 in0.0 mm
10:10 AM 38.8°F3.8°C 35.9°F2.2°C 89% 4.4 mph SW7.1 kmh SW 4.9 mph7.9 kmh 30.08 in1018.6 mb 0.00 in0.0 mm 0.00 in0.0 mm 0.00 in0.0 mm
10:20 AM 39.6°F4.2°C 36.9°F2.7°C 90% 4.6 mph SW7.4 kmh SW 5.9 mph9.5 kmh 30.09 in1019.0 mb 0.00 in0.0 mm 0.00 in0.0 mm 0.00 in0.0 mm
10:30 AM 40.3°F4.6°C 37.6°F3.1°C 90% 4.2 mph W6.8 kmh W 5.9 mph9.5 kmh 30.08 in1018.6 mb 0.00 in0.0 mm 0.00 in0.0 mm 0.00 in0.0 mm
10:40 AM 40.6°F4.8°C 37.9°F3.3°C 90% 5.0 mph SW8.0 kmh SW 5.9 mph9.5 kmh 30.08 in1018.6 mb 0.00 in0.0 mm 0.00 in0.0 mm 0.00 in0.0 mm
10:50 AM 41.0°F5.0°C 38.3°F3.5°C 90% 5.3 mph SW8.5 kmh SW 6.6 mph10.6 kmh 30.08 in1018.6 mb 0.00 in0.0 mm 0.00 in0.0 mm 0.00 in0.0 mm
11:00 AM 41.4°F5.2°C 38.6°F3.7°C 90% 5.0 mph S8.0 kmh S 5.9 mph9.5 kmh 30.07 in1018.3 mb 0.00 in0.0 mm 0.00 in0.0 mm 0.00 in0.0 mm
11:10 AM 41.4°F5.2°C 38.6°F3.7°C 90% 5.1 mph SSW8.2 kmh SSW 6.6 mph10.6 kmh 30.07 in1018.3 mb 0.00 in0.0 mm 0.00 in0.0 mm 0.00 in0.0 mm
11:20 AM 41.5°F5.3°C 38.5°F3.6°C 89% 7.0 mph SW11.3 kmh SW 8.4 mph13.5 kmh 30.07 in1018.3 mb 0.00 in0.0 mm 0.00 in0.0 mm 0.00 in0.0 mm
11:30 AM 41.9°F5.5°C 38.6°F3.7°C 88% 6.4 mph SW10.3 kmh SW 8.4 mph13.5 kmh 30.07 in1018.3 mb 0.00 in0.0 mm 0.00 in0.0 mm 0.00 in0.0 mm
11:40 AM 42.1°F5.6°C 38.5°F3.6°C 87% 6.0 mph SSW9.7 kmh SSW 6.6 mph10.6 kmh 30.07 in1018.3 mb 0.00 in0.0 mm 0.00 in0.0 mm 0.00 in0.0 mm
11:50 AM 42.3°F5.7°C 38.7°F3.7°C 87% 6.8 mph S10.9 kmh S 9.1 mph14.6 kmh 30.07 in1018.3 mb 0.00 in0.0 mm 0.00 in0.0 mm 0.00 in0.0 mm
12:00 PM 42.4°F5.8°C 38.5°F3.6°C 86% 7.1 mph WSW11.4 kmh WSW 9.1 mph14.6 kmh 30.06 in1017.9 mb 0.00 in0.0 mm 0.00 in0.0 mm 0.00 in0.0 mm
12:10 PM 42.6°F5.9°C 38.4°F3.6°C 85% 5.7 mph S9.2 kmh S 7.6 mph12.2 kmh 30.06 in1017.9 mb 0.00 in0.0 mm 0.00 in0.0 mm 0.00 in0.0 mm
12:20 PM 43.0°F6.1°C 38.8°F3.8°C 85% 5.5 mph SSW8.9 kmh SSW 5.9 mph9.5 kmh 30.06 in1017.9 mb 0.00 in0.0 mm 0.00 in0.0 mm 0.00 in0.0 mm
12:30 PM 43.3°F6.3°C 39.1°F3.9°C 85% 5.8 mph SW9.3 kmh SW 6.6 mph10.6 kmh 30.06 in1017.9 mb 0.00 in0.0 mm 0.00 in0.0 mm 0.00 in0.0 mm
12:40 PM 43.7°F6.5°C 39.2°F4.0°C 84% 7.3 mph S11.7 kmh S 9.1 mph14.6 kmh 30.05 in1017.6 mb 0.00 in0.0 mm 0.00 in0.0 mm 0.00 in0.0 mm
12:50 PM 43.7°F6.5°C 39.2°F4.0°C 84% 8.5 mph S13.7 kmh S 8.4 mph13.5 kmh 30.06 in1017.9 mb 0.00 in0.0 mm 0.00 in0.0 mm 0.00 in0.0 mm
01:00 PM 43.9°F6.6°C 39.1°F3.9°C 83% 8.2 mph S13.2 kmh S 8.4 mph13.5 kmh 30.06 in1017.9 mb 0.00 in0.0 mm 0.00 in0.0 mm 0.00 in0.0 mm
01:10 PM 43.9°F6.6°C 39.1°F3.9°C 83% 8.6 mph SSW13.8 kmh SSW 8.4 mph13.5 kmh 30.06 in1017.9 mb 0.00 in0.0 mm 0.00 in0.0 mm 0.00 in0.0 mm
01:20 PM 43.9°F6.6°C 38.7°F3.7°C 82% 6.0 mph SSW9.7 kmh SSW 7.6 mph12.2 kmh 30.05 in1017.6 mb 0.00 in0.0 mm 0.00 in0.0 mm 0.00 in0.0 mm
01:30 PM 43.9°F6.6°C 38.7°F3.7°C 82% 8.1 mph SW13.0 kmh SW 8.4 mph13.5 kmh 30.05 in1017.6 mb 0.00 in0.0 mm 0.00 in0.0 mm 0.00 in0.0 mm
01:40 PM 44.1°F6.7°C 38.9°F3.8°C 82% 7.5 mph SSW12.1 kmh SSW 7.6 mph12.2 kmh 30.05 in1017.6 mb 0.00 in0.0 mm 0.00 in0.0 mm 0.00 in0.0 mm
01:50 PM 43.9°F6.6°C 38.7°F3.7°C 82% 7.7 mph S12.4 kmh S 8.4 mph13.5 kmh 30.05 in1017.6 mb 0.00 in0.0 mm 0.00 in0.0 mm 0.00 in0.0 mm
02:00 PM 43.7°F6.5°C 38.6°F3.7°C 82% 7.8 mph S12.6 kmh S 9.1 mph14.6 kmh 30.05 in1017.6 mb 0.00 in0.0 mm 0.00 in0.0 mm 0.00 in0.0 mm
02:10 PM 43.5°F6.4°C 38.4°F3.6°C 82% 8.1 mph SSW13.0 kmh SSW 9.1 mph14.6 kmh 30.05 in1017.6 mb 0.00 in0.0 mm 0.00 in0.0 mm 0.00 in0.0 mm
02:20 PM 43.3°F6.3°C 38.2°F3.4°C 82% 6.9 mph S11.1 kmh S 7.6 mph12.2 kmh 30.05 in1017.6 mb 0.00 in0.0 mm 0.00 in0.0 mm 0.00 in0.0 mm
02:30 PM 43.2°F6.2°C 38.0°F3.3°C 82% 5.4 mph SW8.7 kmh SW 6.6 mph10.6 kmh 30.05 in1017.6 mb 0.00 in0.0 mm 0.00 in0.0 mm 0.00 in0.0 mm
02:40 PM 43.0°F6.1°C 37.9°F3.3°C 82% 5.7 mph SW9.2 kmh SW 5.9 mph9.5 kmh 30.04 in1017.3 mb 0.00 in0.0 mm 0.00 in0.0 mm 0.00 in0.0 mm
02:50 PM 42.8°F6.0°C 37.7°F3.2°C 82% 4.6 mph SW7.4 kmh SW 4.9 mph7.9 kmh 30.04 in1017.3 mb 0.00 in0.0 mm 0.00 in0.0 mm 0.00 in0.0 mm
03:00 PM 42.6°F5.9°C 37.5°F3.1°C 82% 4.3 mph S6.9 kmh S 4.9 mph7.9 kmh 30.04 in1017.3 mb 0.00 in0.0 mm 0.00 in0.0 mm 0.00 in0.0 mm
03:10 PM 42.3°F5.7°C 37.2°F2.9°C 82% 3.3 mph S5.3 kmh S 4.2 mph6.8 kmh 30.04 in1017.3 mb 0.00 in0.0 mm 0.00 in0.0 mm 0.00 in0.0 mm
03:20 PM 41.9°F5.5°C 37.1°F2.8°C 83% 3.8 mph S6.1 kmh S 4.9 mph7.9 kmh 30.04 in1017.3 mb 0.00 in0.0 mm 0.00 in0.0 mm 0.00 in0.0 mm
03:30 PM 41.7°F5.4°C 36.9°F2.7°C 83% 5.8 mph S9.3 kmh S 7.6 mph12.2 kmh 30.03 in1016.9 mb 0.00 in0.0 mm 0.00 in0.0 mm 0.00 in0.0 mm
03:40 PM 41.4°F5.2°C 36.6°F2.6°C 83% 7.0 mph S11.3 kmh S 8.4 mph13.5 kmh 30.04 in1017.3 mb 0.00 in0.0 mm 0.00 in0.0 mm 0.00 in0.0 mm
03:50 PM 41.2°F5.1°C 36.4°F2.4°C 83% 6.7 mph SSW10.8 kmh SSW 7.6 mph12.2 kmh 30.03 in1016.9 mb 0.00 in0.0 mm 0.00 in0.0 mm 0.00 in0.0 mm
04:00 PM 40.8°F4.9°C 36.1°F2.3°C 83% 4.4 mph SW7.1 kmh SW 7.6 mph12.2 kmh 30.04 in1017.3 mb 0.00 in0.0 mm 0.00 in0.0 mm 0.00 in0.0 mm
04:10 PM 40.3°F4.6°C 35.5°F1.9°C 83% 3.4 mph S5.5 kmh S 4.2 mph6.8 kmh 30.04 in1017.3 mb 0.00 in0.0 mm 0.00 in0.0 mm 0.00 in0.0 mm
04:20 PM 39.9°F4.4°C 35.2°F1.8°C 83% 2.7 mph SSW4.3 kmh SSW 4.2 mph6.8 kmh 30.04 in1017.3 mb 0.00 in0.0 mm 0.00 in0.0 mm 0.00 in0.0 mm
04:30 PM 39.4°F4.1°C 34.6°F1.4°C 83% 2.5 mph SW4.0 kmh SW 3.4 mph5.5 kmh 30.04 in1017.3 mb 0.00 in0.0 mm 0.00 in0.0 mm 0.00 in0.0 mm
04:40 PM 39.2°F4.0°C 34.5°F1.4°C 83% 3.0 mph WNW4.8 kmh WNW 4.2 mph6.8 kmh 30.04 in1017.3 mb 0.00 in0.0 mm 0.00 in0.0 mm 0.00 in0.0 mm
04:50 PM 39.0°F3.9°C 34.6°F1.4°C 84% 2.5 mph SSW4.0 kmh SSW 3.4 mph5.5 kmh 30.04 in1017.3 mb 0.00 in0.0 mm 0.00 in0.0 mm 0.00 in0.0 mm
05:00 PM 38.7°F3.7°C 34.2°F1.2°C 84% 3.4 mph SSW5.5 kmh SSW 4.2 mph6.8 kmh 30.04 in1017.3 mb 0.00 in0.0 mm 0.00 in0.0 mm 0.00 in0.0 mm
05:10 PM 38.5°F3.6°C 34.1°F1.2°C 84% 3.4 mph S5.5 kmh S 4.2 mph6.8 kmh 30.04 in1017.3 mb 0.00 in0.0 mm 0.00 in0.0 mm 0.00 in0.0 mm
05:20 PM 38.3°F3.5°C 33.9°F1.1°C 84% 3.0 mph SSW4.8 kmh SSW 5.9 mph9.5 kmh 30.05 in1017.6 mb 0.00 in0.0 mm 0.00 in0.0 mm 0.00 in0.0 mm
05:30 PM 37.9°F3.3°C 33.5°F0.8°C 84% 2.4 mph SSW3.9 kmh SSW 4.9 mph7.9 kmh 30.05 in1017.6 mb 0.00 in0.0 mm 0.00 in0.0 mm 0.00 in0.0 mm
05:40 PM 37.6°F3.1°C 33.2°F0.7°C 84% 2.1 mph SW3.4 kmh SW 3.4 mph5.5 kmh 30.05 in1017.6 mb 0.00 in0.0 mm 0.00 in0.0 mm 0.00 in0.0 mm
05:50 PM 37.8°F3.2°C 33.7°F0.9°C 85% 2.7 mph S4.3 kmh S 4.9 mph7.9 kmh 30.05 in1017.6 mb 0.00 in0.0 mm 0.00 in0.0 mm 0.00 in0.0 mm
06:00 PM 37.9°F3.3°C 33.8°F1.0°C 85% 3.7 mph S6.0 kmh S 4.2 mph6.8 kmh 30.06 in1017.9 mb 0.00 in0.0 mm 0.00 in0.0 mm 0.00 in0.0 mm
06:10 PM 37.8°F3.2°C 33.7°F0.9°C 85% 2.7 mph NW4.3 kmh NW 3.4 mph5.5 kmh 30.06 in1017.9 mb 0.00 in0.0 mm 0.00 in0.0 mm 0.00 in0.0 mm
06:20 PM 37.9°F3.3°C 33.8°F1.0°C 85% 4.7 mph S7.6 kmh S 5.9 mph9.5 kmh 30.05 in1017.6 mb 0.00 in0.0 mm 0.00 in0.0 mm 0.00 in0.0 mm
06:30 PM 37.9°F3.3°C 34.1°F1.2°C 86% 3.0 mph SW4.8 kmh SW 4.9 mph7.9 kmh 30.06 in1017.9 mb 0.00 in0.0 mm 0.00 in0.0 mm 0.00 in0.0 mm
06:40 PM 37.9°F3.3°C 34.1°F1.2°C 86% 4.1 mph SSW6.6 kmh SSW 4.9 mph7.9 kmh 30.05 in1017.6 mb 0.00 in0.0 mm 0.00 in0.0 mm 0.00 in0.0 mm
06:50 PM 38.1°F3.4°C 34.3°F1.3°C 86% 7.3 mph S11.7 kmh S 6.6 mph10.6 kmh 30.05 in1017.6 mb 0.00 in0.0 mm 0.00 in0.0 mm 0.00 in0.0 mm
07:00 PM 38.1°F3.4°C 34.3°F1.3°C 86% 5.0 mph S8.0 kmh S 6.6 mph10.6 kmh 30.05 in1017.6 mb 0.00 in0.0 mm 0.00 in0.0 mm 0.00 in0.0 mm
07:10 PM 38.3°F3.5°C 34.8°F1.6°C 87% 4.6 mph SW7.4 kmh SW 4.2 mph6.8 kmh 30.05 in1017.6 mb 0.00 in0.0 mm 0.00 in0.0 mm 0.00 in0.0 mm
07:20 PM 38.3°F3.5°C 34.8°F1.6°C 87% 6.5 mph SE10.5 kmh SE 7.6 mph12.2 kmh 30.05 in1017.6 mb 0.00 in0.0 mm 0.00 in0.0 mm 0.00 in0.0 mm
07:30 PM 38.3°F3.5°C 34.8°F1.6°C 87% 7.1 mph SSE11.4 kmh SSE 6.6 mph10.6 kmh 30.05 in1017.6 mb 0.00 in0.0 mm 0.00 in0.0 mm 0.00 in0.0 mm
07:40 PM 38.1°F3.4°C 34.6°F1.4°C 87% 4.1 mph WSW6.6 kmh WSW 5.9 mph9.5 kmh 30.05 in1017.6 mb 0.00 in0.0 mm 0.00 in0.0 mm 0.00 in0.0 mm
07:50 PM 37.8°F3.2°C 34.2°F1.2°C 87% 3.1 mph SW5.0 kmh SW 3.4 mph5.5 kmh 30.05 in1017.6 mb 0.00 in0.0 mm 0.00 in0.0 mm 0.00 in0.0 mm
08:00 PM 37.4°F3.0°C 33.9°F1.1°C 87% 3.0 mph SW4.8 kmh SW 4.2 mph6.8 kmh 30.05 in1017.6 mb 0.00 in0.0 mm 0.00 in0.0 mm 0.00 in0.0 mm
08:10 PM 37.2°F2.9°C 33.7°F0.9°C 87% 3.9 mph SSW6.3 kmh SSW 4.2 mph6.8 kmh 30.05 in1017.6 mb 0.00 in0.0 mm 0.00 in0.0 mm 0.00 in0.0 mm
08:20 PM 37.0°F2.8°C 33.5°F0.8°C 87% 3.7 mph SW6.0 kmh SW 4.2 mph6.8 kmh 30.05 in1017.6 mb 0.00 in0.0 mm 0.00 in0.0 mm 0.00 in0.0 mm
08:30 PM 36.7°F2.6°C 33.2°F0.7°C 87% 3.1 mph S5.0 kmh S 4.2 mph6.8 kmh 30.05 in1017.6 mb 0.00 in0.0 mm 0.00 in0.0 mm 0.00 in0.0 mm
08:40 PM 36.5°F2.5°C 33.0°F0.6°C 87% 3.5 mph SSE5.6 kmh SSE 4.2 mph6.8 kmh 30.04 in1017.3 mb 0.00 in0.0 mm 0.00 in0.0 mm 0.00 in0.0 mm
08:50 PM 36.7°F2.6°C 33.2°F0.7°C 87% 5.3 mph S8.5 kmh S 7.6 mph12.2 kmh 30.04 in1017.3 mb 0.00 in0.0 mm 0.00 in0.0 mm 0.00 in0.0 mm
09:00 PM 36.5°F2.5°C 33.0°F0.6°C 87% 4.0 mph SW6.4 kmh SW 4.2 mph6.8 kmh 30.04 in1017.3 mb 0.00 in0.0 mm 0.00 in0.0 mm 0.00 in0.0 mm
09:10 PM 36.5°F2.5°C 33.0°F0.6°C 87% 3.6 mph SSW5.8 kmh SSW 4.9 mph7.9 kmh 30.05 in1017.6 mb 0.00 in0.0 mm 0.00 in0.0 mm 0.00 in0.0 mm
09:20 PM 36.3°F2.4°C 32.8°F0.4°C 87% 3.5 mph SW5.6 kmh SW 4.2 mph6.8 kmh 30.05 in1017.6 mb 0.00 in0.0 mm 0.00 in0.0 mm 0.00 in0.0 mm
09:30 PM 36.3°F2.4°C 32.8°F0.4°C 87% 5.0 mph SSW8.0 kmh SSW 5.9 mph9.5 kmh 30.05 in1017.6 mb 0.00 in0.0 mm 0.00 in0.0 mm 0.00 in0.0 mm
09:40 PM 36.1°F2.3°C 32.6°F0.3°C 87% 4.5 mph S7.2 kmh S 6.6 mph10.6 kmh 30.05 in1017.6 mb 0.00 in0.0 mm 0.00 in0.0 mm 0.00 in0.0 mm
09:50 PM 36.0°F2.2°C 32.5°F0.3°C 87% 3.7 mph SW6.0 kmh SW 4.9 mph7.9 kmh 30.05 in1017.6 mb 0.00 in0.0 mm 0.00 in0.0 mm 0.00 in0.0 mm
10:00 PM 35.6°F2.0°C 32.1°F0.1°C 87% 5.2 mph S8.4 kmh S 5.9 mph9.5 kmh 30.05 in1017.6 mb 0.00 in0.0 mm 0.00 in0.0 mm 0.00 in0.0 mm
10:10 PM 35.4°F1.9°C 31.9°F-0.1°C 87% 3.7 mph S6.0 kmh S 3.4 mph5.5 kmh 30.04 in1017.3 mb 0.00 in0.0 mm 0.00 in0.0 mm 0.00 in0.0 mm
10:20 PM 35.2°F1.8°C 31.8°F-0.1°C 87% 2.1 mph SW3.4 kmh SW 3.4 mph5.5 kmh 30.04 in1017.3 mb 0.00 in0.0 mm 0.00 in0.0 mm 0.00 in0.0 mm
10:30 PM 35.1°F1.7°C 31.6°F-0.2°C 87% 3.4 mph SSW5.5 kmh SSW 4.9 mph7.9 kmh 30.05 in1017.6 mb 0.00 in0.0 mm 0.00 in0.0 mm 0.00 in0.0 mm
10:40 PM 34.7°F1.5°C 31.2°F-0.4°C 87% 3.1 mph SW5.0 kmh SW 4.2 mph6.8 kmh 30.05 in1017.6 mb 0.00 in0.0 mm 0.00 in0.0 mm 0.00 in0.0 mm
10:50 PM 34.5°F1.4°C 30.8°F-0.7°C 86% 2.6 mph SSW4.2 kmh SSW 4.2 mph6.8 kmh 30.04 in1017.3 mb 0.00 in0.0 mm 0.00 in0.0 mm 0.00 in0.0 mm
11:00 PM 34.5°F1.4°C 31.0°F-0.6°C 87% 3.1 mph S5.0 kmh S 4.9 mph7.9 kmh 30.04 in1017.3 mb 0.00 in0.0 mm 0.00 in0.0 mm 0.00 in0.0 mm
11:10 PM 34.7°F1.5°C 31.2°F-0.4°C 87% 2.9 mph S4.7 kmh S 3.4 mph5.5 kmh 30.03 in1016.9 mb 0.00 in0.0 mm 0.00 in0.0 mm 0.00 in0.0 mm
11:20 PM 34.7°F1.5°C 31.2°F-0.4°C 87% 3.7 mph SSW6.0 kmh SSW 4.9 mph7.9 kmh 30.04 in1017.3 mb 0.00 in0.0 mm 0.00 in0.0 mm 0.00 in0.0 mm
11:30 PM 34.5°F1.4°C 31.0°F-0.6°C 87% 4.0 mph SW6.4 kmh SW 4.9 mph7.9 kmh 30.04 in1017.3 mb 0.00 in0.0 mm 0.00 in0.0 mm 0.00 in0.0 mm
11:40 PM 34.3°F1.3°C 30.9°F-0.6°C 87% 3.6 mph SW5.8 kmh SW 4.9 mph7.9 kmh 30.04 in1017.3 mb 0.00 in0.0 mm 0.00 in0.0 mm 0.00 in0.0 mm
11:50 PM 34.2°F1.2°C 30.7°F-0.7°C 87% 3.3 mph S5.3 kmh S 3.4 mph5.5 kmh 30.04 in1017.3 mb 0.00 in0.0 mm 0.00 in0.0 mm 0.00 in0.0 mm